createdAt,value
2023-02-22T00:00:09.823Z,4.68
2023-02-22T00:03:54.900Z,4.72
2023-02-22T00:07:23.929Z,4.73
2023-02-22T00:10:52.850Z,4.74
2023-02-22T00:14:21.851Z,4.75
2023-02-22T00:17:49.219Z,4.69
2023-02-22T00:21:18.152Z,4.61
2023-02-22T00:24:47.054Z,4.54
2023-02-22T00:28:15.500Z,4.44
2023-02-22T00:31:42.413Z,4.31
2023-02-22T00:35:11.048Z,4.19
2023-02-22T00:38:37.592Z,4.06
2023-02-22T00:42:05.890Z,3.92
2023-02-22T00:45:34.386Z,3.79
2023-02-22T00:49:06.476Z,3.67
2023-02-22T00:52:33.067Z,3.55
2023-02-22T00:56:02.290Z,3.48
2023-02-22T00:59:31.419Z,3.41
2023-02-22T01:03:01.556Z,3.40
2023-02-22T01:06:29.563Z,3.39
2023-02-22T01:09:59.357Z,3.43
2023-02-22T01:13:26.236Z,3.46
2023-02-22T01:16:54.679Z,3.49
2023-02-22T01:20:23.101Z,3.53
2023-02-22T01:23:50.546Z,3.56
2023-02-22T01:27:18.103Z,3.58
2023-02-22T01:30:45.114Z,3.61
2023-02-22T01:34:15.506Z,3.59
2023-02-22T01:37:43.635Z,3.55
2023-02-22T01:41:10.788Z,3.50
2023-02-22T01:44:40.436Z,3.47
2023-02-22T01:48:13.372Z,3.44
2023-02-22T01:51:44.287Z,3.36
2023-02-22T01:55:11.274Z,3.26
2023-02-22T01:58:42.825Z,3.15
2023-02-22T02:02:09.971Z,3.05
2023-02-22T02:05:39.273Z,2.93
2023-02-22T02:09:12.259Z,2.78
2023-02-22T02:12:39.307Z,2.68
2023-02-22T02:16:06.396Z,2.56
2023-02-22T02:19:45.165Z,2.47
2023-02-22T02:23:35.849Z,2.43
2023-02-22T02:27:24.190Z,2.37
2023-02-22T02:31:36.234Z,2.30
2023-02-22T02:35:11.624Z,2.26
2023-02-22T02:38:45.992Z,2.26
2023-02-22T02:42:19.265Z,2.27
2023-02-22T02:45:51.041Z,2.24
2023-02-22T02:49:23.259Z,2.19
2023-02-22T02:52:54.521Z,2.16
2023-02-22T02:56:23.598Z,2.11
2023-02-22T02:59:51.608Z,2.08
2023-02-22T03:03:38.965Z,2.07
2023-02-22T03:07:30.072Z,2.06
2023-02-22T03:11:15.650Z,2.05
2023-02-22T03:14:56.048Z,2.05
2023-02-22T03:18:30.726Z,2.04
2023-02-22T03:22:04.920Z,2.00
2023-02-22T03:25:40.408Z,1.97
2023-02-22T03:29:12.198Z,1.94
2023-02-22T03:32:42.569Z,1.88
2023-02-22T03:36:15.715Z,1.82
2023-02-22T03:39:44.816Z,1.80
2023-02-22T03:43:15.910Z,1.81
2023-02-22T03:46:44.552Z,1.84
2023-02-22T03:50:16.606Z,1.88
2023-02-22T03:53:46.090Z,1.92
2023-02-22T03:57:17.597Z,1.98
2023-02-22T04:00:44.910Z,2.03
2023-02-22T04:04:11.446Z,2.06
2023-02-22T04:11:42.226Z,2.06
2023-02-22T04:15:14.122Z,2.03
2023-02-22T04:18:42.277Z,1.99
2023-02-22T04:22:09.159Z,1.94
2023-02-22T04:25:35.903Z,1.89
2023-02-22T04:29:10.571Z,1.83
2023-02-22T04:32:39.681Z,1.77
2023-02-22T04:36:08.939Z,1.69
2023-02-22T04:39:36.429Z,1.63
2023-02-22T04:43:03.653Z,1.59
2023-02-22T04:46:31.704Z,1.55
2023-02-22T04:50:00.576Z,1.50
2023-02-22T04:53:27.675Z,1.44
2023-02-22T04:56:55.600Z,1.40
2023-02-22T05:00:26.412Z,1.34
2023-02-22T05:03:59.570Z,1.39
2023-02-22T05:07:26.542Z,1.41
2023-02-22T05:10:52.774Z,1.44
2023-02-22T05:14:19.760Z,1.46
2023-02-22T05:17:46.767Z,1.48
2023-02-22T05:21:13.823Z,1.51
2023-02-22T05:24:44.352Z,1.50
2023-02-22T05:28:15.823Z,1.47
2023-02-22T05:31:42.746Z,1.43
2023-02-22T05:35:10.348Z,1.39
2023-02-22T05:38:43.471Z,1.34
2023-02-22T05:42:10.720Z,1.27
2023-02-22T05:45:37.646Z,1.21
2023-02-22T05:49:05.709Z,1.14
2023-02-22T05:52:32.113Z,1.08
2023-02-22T05:55:59.753Z,1.02
2023-02-22T05:59:28.121Z,0.95
2023-02-22T06:03:00.164Z,0.91
2023-02-22T06:06:26.715Z,0.87
2023-02-22T06:09:54.372Z,0.82
2023-02-22T06:13:20.658Z,0.81
2023-02-22T06:16:53.204Z,0.80
2023-02-22T06:20:22.926Z,0.81
2023-02-22T06:23:50.184Z,0.83
2023-02-22T06:27:17.026Z,0.85
2023-02-22T06:30:52.523Z,0.91
2023-02-22T06:34:22.055Z,0.99
2023-02-22T06:37:49.176Z,1.06
2023-02-22T06:41:16.479Z,1.12
2023-02-22T06:44:44.123Z,1.16
2023-02-22T06:48:10.958Z,1.19
2023-02-22T06:51:40.488Z,1.20
2023-02-22T06:55:07.873Z,1.20
2023-02-22T06:58:34.503Z,1.19
2023-02-22T07:02:01.581Z,1.17
2023-02-22T07:05:29.687Z,1.17
2023-02-22T07:08:56.632Z,1.17
2023-02-22T07:12:24.062Z,1.18
2023-02-22T07:15:50.950Z,1.19
2023-02-22T07:19:17.941Z,1.22
2023-02-22T07:22:44.688Z,1.26
2023-02-22T07:26:12.453Z,1.30
2023-02-22T07:29:40.551Z,1.34
2023-02-22T07:33:09.206Z,1.39
2023-02-22T07:36:36.395Z,1.47
2023-02-22T07:40:04.311Z,1.58
2023-02-22T07:43:32.360Z,1.70
2023-02-22T07:46:59.683Z,1.84
2023-02-22T07:50:30.272Z,1.99
2023-02-22T07:53:56.931Z,2.13
2023-02-22T07:57:24.265Z,2.30
2023-02-22T08:00:51.290Z,2.44
2023-02-22T08:04:18.561Z,2.56
2023-02-22T08:07:45.627Z,2.64
2023-02-22T08:11:13.353Z,2.69
2023-02-22T08:14:40.726Z,2.72
2023-02-22T08:18:11.730Z,2.73
2023-02-22T08:21:38.801Z,2.74
2023-02-22T08:25:06.724Z,2.72
2023-02-22T08:28:36.577Z,2.70
2023-02-22T08:32:03.893Z,2.67
2023-02-22T08:35:32.127Z,2.64
2023-02-22T08:38:59.893Z,2.60
2023-02-22T08:42:26.843Z,2.57
2023-02-22T08:45:57.182Z,2.58
2023-02-22T08:49:24.991Z,2.59
2023-02-22T08:52:53.485Z,2.62
2023-02-22T08:56:23.567Z,2.63
2023-02-22T08:59:51.138Z,2.65
2023-02-22T09:03:18.395Z,2.69
2023-02-22T09:06:48.624Z,2.72
2023-02-22T09:10:17.671Z,2.74
2023-02-22T09:13:44.540Z,2.80
2023-02-22T09:17:11.440Z,2.80
2023-02-22T09:20:39.083Z,2.79
2023-02-22T09:24:08.801Z,2.86
2023-02-22T09:27:35.911Z,2.92
2023-02-22T09:31:03.018Z,3.00
2023-02-22T09:34:30.796Z,3.02
2023-02-22T09:38:00.289Z,3.03
2023-02-22T09:41:36.137Z,3.03
2023-02-22T09:45:13.097Z,3.08
2023-02-22T09:48:51.691Z,3.14
2023-02-22T09:52:25.333Z,3.17
2023-02-22T09:55:52.781Z,3.24
2023-02-22T09:59:26.407Z,3.33
2023-02-22T10:02:55.999Z,3.43
2023-02-22T10:06:26.350Z,3.48
2023-02-22T10:09:56.715Z,3.58
2023-02-22T10:13:35.137Z,3.70
2023-02-22T10:17:12.410Z,3.76
2023-02-22T10:20:52.872Z,3.74
2023-02-22T10:24:39.912Z,3.68
2023-02-22T10:28:15.185Z,3.70
2023-02-22T10:31:46.308Z,3.77
2023-02-22T10:35:23.644Z,3.80
2023-02-22T10:38:58.492Z,3.85
2023-02-22T10:42:29.751Z,3.82
2023-02-22T10:46:01.546Z,3.79
2023-02-22T10:49:35.098Z,3.75
2023-02-22T10:53:02.170Z,3.81
2023-02-22T10:56:31.091Z,3.80
2023-02-22T11:00:19.983Z,3.85
2023-02-22T11:03:57.425Z,4.10
2023-02-22T11:07:30.218Z,4.43
2023-02-22T11:10:59.015Z,4.74
2023-02-22T11:14:33.424Z,4.93
2023-02-22T11:18:02.155Z,4.93
2023-02-22T11:21:32.357Z,5.05
2023-02-22T11:25:04.464Z,5.04
2023-02-22T11:28:33.253Z,5.11
2023-02-22T11:32:01.080Z,5.28
2023-02-22T11:35:39.109Z,5.38
2023-02-22T11:39:06.912Z,5.32
2023-02-22T11:42:34.235Z,5.31
2023-02-22T11:46:08.637Z,5.48
2023-02-22T11:49:39.475Z,5.69
2023-02-22T11:53:23.444Z,5.82
2023-02-22T11:56:53.097Z,6.01
2023-02-22T12:00:25.965Z,6.16
2023-02-22T12:04:33.409Z,6.28
2023-02-22T12:08:19.443Z,6.45
2023-02-22T12:12:00.897Z,6.74
2023-02-22T12:15:33.749Z,7.01
2023-02-22T12:19:18.008Z,7.21
2023-02-22T12:22:55.031Z,7.37
2023-02-22T12:26:27.555Z,7.45
2023-02-22T12:30:01.928Z,7.31
2023-02-22T12:33:35.078Z,7.08
2023-02-22T12:37:13.470Z,6.87
2023-02-22T12:40:50.193Z,6.70
2023-02-22T12:44:23.224Z,6.50
2023-02-22T12:47:52.891Z,6.32
2023-02-22T12:51:29.427Z,6.10
2023-02-22T12:55:02.008Z,5.99
2023-02-22T12:58:36.701Z,5.90
2023-02-22T13:02:14.429Z,5.83
2023-02-22T13:05:43.518Z,5.76
2023-02-22T13:09:28.965Z,5.73
2023-02-22T13:13:05.076Z,5.88
2023-02-22T13:16:44.001Z,6.00
2023-02-22T13:20:19.814Z,5.96
2023-02-22T13:23:54.857Z,5.91
2023-02-22T13:27:26.347Z,5.86
2023-02-22T13:31:06.335Z,5.81
2023-02-22T13:34:50.512Z,5.73
2023-02-22T13:39:01.176Z,5.83
2023-02-22T13:42:50.294Z,6.04
2023-02-22T13:46:41.095Z,6.06
2023-02-22T13:50:45.462Z,6.07
2023-02-22T13:54:17.531Z,6.05
2023-02-22T13:57:49.062Z,6.15
2023-02-22T14:01:44.170Z,6.41
2023-02-22T14:05:39.258Z,6.80
2023-02-22T14:09:11.274Z,7.02
2023-02-22T14:12:53.462Z,7.05
2023-02-22T14:16:29.955Z,7.21
2023-02-22T14:20:35.159Z,7.21
2023-02-22T14:24:11.830Z,7.06
2023-02-22T14:27:45.595Z,6.97
2023-02-22T14:31:33.324Z,6.95
2023-02-22T14:35:02.489Z,6.88
2023-02-22T14:38:32.335Z,6.74
2023-02-22T14:42:12.723Z,6.65
2023-02-22T14:45:47.215Z,6.60
2023-02-22T14:49:19.132Z,6.53
2023-02-22T14:52:47.897Z,6.48
2023-02-22T14:56:23.218Z,6.48
2023-02-22T15:00:08.323Z,6.54
2023-02-22T15:03:37.643Z,6.53
2023-02-22T15:07:27.645Z,6.46
2023-02-22T15:10:56.454Z,6.39
2023-02-22T15:14:27.061Z,6.35
2023-02-22T15:17:58.847Z,6.34
2023-02-22T15:21:29.476Z,6.30
2023-02-22T15:25:03.598Z,6.24
2023-02-22T15:28:32.477Z,6.20
2023-02-22T15:31:59.459Z,6.10
2023-02-22T15:35:30.060Z,6.00
2023-02-22T15:38:59.676Z,5.87
2023-02-22T15:42:28.339Z,5.76
2023-02-22T15:45:57.482Z,5.64
2023-02-22T15:49:26.470Z,5.51
2023-02-22T15:52:59.395Z,5.36
2023-02-22T15:56:31.362Z,5.23
2023-02-22T15:59:59.979Z,5.07
2023-02-22T16:03:33.371Z,4.94
2023-02-22T16:07:17.305Z,4.80
2023-02-22T16:10:49.301Z,4.70
2023-02-22T16:14:31.297Z,4.56
2023-02-22T16:18:02.405Z,4.46
2023-02-22T16:21:50.906Z,4.38
2023-02-22T16:25:33.296Z,4.31
2023-02-22T16:29:03.289Z,4.24
2023-02-22T16:32:30.843Z,4.19
2023-02-22T16:35:58.003Z,4.12
2023-02-22T16:39:28.420Z,4.04
2023-02-22T16:42:56.644Z,3.97
2023-02-22T16:46:23.872Z,3.93
2023-02-22T16:49:55.910Z,3.89
2023-02-22T16:53:25.423Z,3.87
2023-02-22T16:56:52.833Z,3.83
2023-02-22T17:00:31.669Z,3.80
2023-02-22T17:03:59.449Z,3.78
2023-02-22T17:07:30.138Z,3.74
2023-02-22T17:11:04.854Z,3.69
2023-02-22T17:14:36.584Z,3.63
2023-02-22T17:18:06.133Z,3.59
2023-02-22T17:21:33.059Z,3.55
2023-02-22T17:24:59.626Z,3.51
2023-02-22T17:28:28.647Z,3.46
2023-02-22T17:31:56.995Z,3.43
2023-02-22T17:35:27.490Z,3.39
2023-02-22T17:38:57.312Z,3.37
2023-02-22T17:42:24.226Z,3.37
2023-02-22T17:45:51.469Z,3.35
2023-02-22T17:49:18.246Z,3.36
2023-02-22T17:52:46.094Z,3.35
2023-02-22T17:56:16.865Z,3.33
2023-02-22T17:59:43.876Z,3.32
2023-02-22T18:03:13.043Z,3.30
2023-02-22T18:06:40.384Z,3.25
2023-02-22T18:10:12.255Z,3.20
2023-02-22T18:13:39.235Z,3.15
2023-02-22T18:17:07.241Z,3.12
2023-02-22T18:20:39.329Z,3.09
2023-02-22T18:24:07.092Z,3.03
2023-02-22T18:27:33.949Z,2.99
2023-02-22T18:31:01.418Z,2.96
2023-02-22T18:34:31.197Z,2.94
2023-02-22T18:37:58.496Z,2.92
2023-02-22T18:41:28.839Z,2.86
2023-02-22T18:45:03.533Z,2.76
2023-02-22T18:48:33.433Z,2.75
2023-02-22T18:52:01.549Z,2.71
2023-02-22T18:55:33.941Z,2.68
2023-02-22T18:59:05.894Z,2.66
2023-02-22T19:02:34.710Z,2.64
2023-02-22T19:06:09.950Z,2.63
2023-02-22T19:09:40.198Z,2.63
2023-02-22T19:13:13.036Z,2.64
2023-02-22T19:16:49.997Z,2.63
2023-02-22T19:20:20.728Z,2.64
2023-02-22T19:23:50.938Z,2.64
2023-02-22T19:27:19.415Z,2.60
2023-02-22T19:30:56.082Z,2.56
2023-02-22T19:34:28.345Z,2.55
2023-02-22T19:38:00.922Z,2.52
2023-02-22T19:41:35.404Z,2.52
2023-02-22T19:45:03.935Z,2.53
2023-02-22T19:48:36.150Z,2.52
2023-02-22T19:52:13.134Z,2.51
2023-02-22T19:55:42.927Z,2.46
2023-02-22T19:59:14.831Z,2.43
2023-02-22T20:02:53.475Z,2.40
2023-02-22T20:06:26.183Z,2.38
2023-02-22T20:09:57.094Z,2.35
2023-02-22T20:13:28.682Z,2.33
2023-02-22T20:17:08.882Z,2.32
2023-02-22T20:20:42.217Z,2.32
2023-02-22T20:24:19.713Z,2.29
2023-02-22T20:28:00.884Z,2.29
2023-02-22T20:31:32.312Z,2.28
2023-02-22T20:35:02.119Z,2.27
2023-02-22T20:38:33.558Z,2.26
2023-02-22T20:42:05.013Z,2.28
2023-02-22T20:45:37.125Z,2.28
2023-02-22T20:49:13.532Z,2.25
2023-02-22T20:52:46.117Z,2.22
2023-02-22T20:56:18.496Z,2.21
2023-02-22T20:59:49.698Z,2.15
2023-02-22T21:03:21.458Z,2.10
2023-02-22T21:06:51.364Z,2.06
2023-02-22T21:10:21.698Z,2.02
2023-02-22T21:13:51.620Z,2.00
2023-02-22T21:17:29.350Z,1.96
2023-02-22T21:20:58.388Z,1.93
2023-02-22T21:24:29.724Z,1.89
2023-02-22T21:28:02.292Z,1.86
2023-02-22T21:31:35.532Z,1.78
2023-02-22T21:35:03.910Z,1.73
2023-02-22T21:38:34.276Z,1.70
2023-02-22T21:42:02.897Z,1.68
2023-02-22T21:45:31.213Z,1.64
2023-02-22T21:49:06.420Z,1.60
2023-02-22T21:52:37.736Z,1.58
2023-02-22T21:56:10.159Z,1.55
2023-02-22T21:59:39.821Z,1.50
2023-02-22T22:03:11.854Z,1.45
2023-02-22T22:06:43.393Z,1.41
2023-02-22T22:10:18.112Z,1.37
2023-02-22T22:13:52.719Z,1.33
2023-02-22T22:17:23.245Z,1.30
2023-02-22T22:20:53.891Z,1.28
2023-02-22T22:24:23.633Z,1.27
2023-02-22T22:27:51.586Z,1.28
2023-02-22T22:31:24.020Z,1.30
2023-02-22T22:34:52.484Z,1.36
2023-02-22T22:38:21.993Z,1.42
2023-02-22T22:41:55.271Z,1.47
2023-02-22T22:45:28.631Z,1.50
2023-02-22T22:48:58.609Z,1.48
2023-02-22T22:52:33.756Z,1.47
2023-02-22T22:56:15.690Z,1.45
2023-02-22T22:59:48.309Z,1.38
2023-02-22T23:03:23.317Z,1.31
2023-02-22T23:06:54.487Z,1.25
2023-02-22T23:10:28.679Z,1.20
2023-02-22T23:14:04.150Z,1.13
2023-02-22T23:17:41.798Z,1.08
2023-02-22T23:21:10.658Z,1.04
2023-02-22T23:24:44.843Z,0.98
2023-02-22T23:28:16.249Z,0.94
2023-02-22T23:31:44.168Z,0.91
2023-02-22T23:35:14.188Z,0.87
2023-02-22T23:38:42.693Z,0.82
2023-02-22T23:42:10.680Z,0.78
2023-02-22T23:45:46.268Z,0.73
2023-02-22T23:49:17.715Z,0.68
2023-02-22T23:52:46.500Z,0.64
2023-02-22T23:56:15.015Z,0.61
2023-02-22T23:59:42.181Z,0.58
